Time;durP1;ratioP1;P1;durP2;ratioP2;P2;SDS_P1;SDS_P2;PMS_P1;PMS_P2;Temp;Humidity;BMP_temperature;BMP_pressure;BME280_temperature;BME280_humidity;BME280_pressure;Samples;Min_cycle;Max_cycle;Signal;HPM_P1;HPM_P2
2020/12/14 00:02:17;;;;;;;10.88;9.65;;;6.10;99.90;;;;;;4925431;29;20024;-73
2020/12/14 00:04:43;;;;;;;12.73;9.20;;;6.20;99.90;;;;;;4937818;29;20020;-74
2020/12/14 00:07:09;;;;;;;15.02;10.07;;;6.30;99.90;;;;;;4925809;29;20054;-73
2020/12/14 00:09:35;;;;;;;8.82;7.80;;;6.40;99.90;;;;;;4944203;29;20062;-73
2020/12/14 00:12:02;;;;;;;23.13;14.25;;;6.50;99.90;;;;;;4943420;29;20028;-74
2020/12/14 00:14:28;;;;;;;12.75;9.63;;;6.60;99.90;;;;;;4927435;29;20027;-73
2020/12/14 00:16:54;;;;;;;38.25;25.48;;;6.60;99.90;;;;;;4936091;29;20557;-73
2020/12/14 00:19:20;;;;;;;23.58;18.17;;;6.70;99.90;;;;;;4926374;29;20076;-73
2020/12/14 00:21:46;;;;;;;57.55;31.75;;;6.60;99.90;;;;;;4930175;29;20486;-73
2020/12/14 00:24:13;;;;;;;37.45;20.95;;;6.60;99.90;;;;;;4911632;29;20032;-74
2020/12/14 00:26:39;;;;;;;40.60;23.23;;;6.60;99.90;;;;;;4925765;29;20119;-73
2020/12/14 00:29:04;;;;;;;80.30;47.97;;;6.50;99.90;;;;;;4907514;29;20119;-75
2020/12/14 00:31:30;;;;;;;40.58;25.08;;;6.40;99.90;;;;;;4931051;29;20162;-73
2020/12/14 00:33:56;;;;;;;29.83;17.90;;;6.30;99.90;;;;;;4934804;29;20051;-74
2020/12/14 00:36:22;;;;;;;30.67;20.00;;;6.30;99.90;;;;;;4932731;29;20042;-73
2020/12/14 00:38:48;;;;;;;24.65;14.20;;;6.20;99.90;;;;;;4931185;29;20483;-72
2020/12/14 00:41:18;;;;;;;12.80;8.35;;;6.30;99.90;;;;;;4906660;29;20028;-73
2020/12/14 00:43:45;;;;;;;22.13;14.73;;;6.50;99.90;;;;;;4917368;29;20230;-72
2020/12/14 00:46:18;;;;;;;20.63;14.35;;;6.50;99.90;;;;;;4914942;29;20024;-73
2020/12/14 00:48:44;;;;;;;10.57;7.43;;;6.60;99.90;;;;;;4933862;29;20087;-73
2020/12/14 00:51:11;;;;;;;7.88;6.20;;;6.60;99.90;;;;;;4912469;29;20442;-73
2020/12/14 00:53:37;;;;;;;7.70;5.70;;;7.10;99.90;;;;;;4929541;29;20107;-72
2020/12/14 00:56:04;;;;;;;11.57;8.23;;;7.30;99.90;;;;;;4919780;29;20039;-73
2020/12/14 00:58:30;;;;;;;8.73;6.80;;;7.40;99.90;;;;;;4928830;29;20023;-74
2020/12/14 01:00:57;;;;;;;11.07;7.50;;;7.40;99.90;;;;;;4933582;29;20051;-73
2020/12/14 01:03:25;;;;;;;10.93;8.05;;;7.40;99.90;;;;;;4934297;29;20103;-73
2020/12/14 01:05:51;;;;;;;5.63;4.63;;;7.20;99.90;;;;;;4927124;29;20051;-74
2020/12/14 01:08:20;;;;;;;11.50;7.82;;;7.10;99.90;;;;;;4930296;29;20024;-74
2020/12/14 01:10:46;;;;;;;10.73;7.80;;;7.10;99.90;;;;;;4939837;29;20035;-73
2020/12/14 01:13:12;;;;;;;11.07;7.78;;;7.00;99.90;;;;;;4938558;29;20063;-75
2020/12/14 01:15:38;;;;;;;8.90;6.32;;;7.00;99.90;;;;;;4933625;29;20084;-73
2020/12/14 01:18:04;;;;;;;9.13;6.72;;;6.90;99.90;;;;;;4928365;29;20032;-73
2020/12/14 01:20:30;;;;;;;7.68;6.72;;;6.80;99.90;;;;;;4930249;29;20384;-74
2020/12/14 01:22:56;;;;;;;14.15;9.95;;;6.80;99.90;;;;;;4926464;29;20057;-74
2020/12/14 01:25:22;;;;;;;22.17;14.60;;;6.80;99.90;;;;;;4933287;29;20062;-73
2020/12/14 01:27:47;;;;;;;8.18;6.32;;;6.90;99.90;;;;;;4916372;29;20028;-73
2020/12/14 01:30:13;;;;;;;26.88;14.70;;;7.10;99.90;;;;;;4914360;29;20035;-77
2020/12/14 01:32:39;;;;;;;9.25;6.47;;;7.30;99.90;;;;;;4904429;29;20430;-75
2020/12/14 01:35:05;;;;;;;10.00;6.47;;;7.40;99.90;;;;;;4929260;29;20042;-73
2020/12/14 01:37:31;;;;;;;6.35;5.05;;;7.60;99.90;;;;;;4927661;29;20099;-74
2020/12/14 01:39:56;;;;;;;4.72;3.85;;;7.60;99.90;;;;;;4924209;29;20114;-73
2020/12/14 01:42:22;;;;;;;4.88;4.38;;;7.60;99.90;;;;;;4930771;29;20027;-72
2020/12/14 01:44:51;;;;;;;4.43;4.00;;;7.60;99.90;;;;;;4922305;29;20506;-73
2020/12/14 01:47:35;;;;;;;11.82;9.25;;;7.70;99.90;;;;;;4908365;29;20123;-74
2020/12/14 01:50:01;;;;;;;11.73;7.43;;;7.60;99.90;;;;;;4923305;29;20521;-75
2020/12/14 01:52:27;;;;;;;5.68;3.28;;;7.60;99.90;;;;;;4924648;29;20394;-73
2020/12/14 01:54:55;;;;;;;5.63;4.15;;;7.60;99.90;;;;;;4928316;29;20031;-74
2020/12/14 01:57:21;;;;;;;5.22;4.63;;;7.70;99.90;;;;;;4935151;29;20382;-75
2020/12/14 01:59:47;;;;;;;4.63;4.00;;;7.60;99.90;;;;;;4932197;29;20035;-77
2020/12/14 02:02:13;;;;;;;4.75;4.28;;;7.60;99.90;;;;;;4924218;29;20119;-74
2020/12/14 02:04:39;;;;;;;5.88;4.22;;;7.70;99.90;;;;;;4922680;29;20036;-74
2020/12/14 02:07:05;;;;;;;6.25;4.82;;;7.70;99.90;;;;;;4918275;29;20031;-73
2020/12/14 02:09:31;;;;;;;4.78;4.05;;;7.70;99.90;;;;;;4929605;29;20454;-74
2020/12/14 02:11:57;;;;;;;4.57;4.18;;;7.70;99.90;;;;;;4909166;29;20122;-74
2020/12/14 02:14:23;;;;;;;4.22;3.50;;;7.70;99.90;;;;;;4934675;29;20059;-72
2020/12/14 02:16:49;;;;;;;4.65;3.85;;;7.70;99.90;;;;;;4923239;29;20419;-72
2020/12/14 02:19:15;;;;;;;4.70;4.20;;;7.60;99.90;;;;;;4934239;29;20023;-72
2020/12/14 02:21:41;;;;;;;4.68;4.05;;;7.60;99.90;;;;;;4909648;29;20533;-73
2020/12/14 02:24:14;;;;;;;5.93;5.43;;;7.60;99.90;;;;;;4929403;29;20456;-73
2020/12/14 02:26:40;;;;;;;5.03;4.53;;;7.60;99.90;;;;;;4918359;29;20034;-76
2020/12/14 02:29:07;;;;;;;4.22;3.78;;;7.60;99.90;;;;;;4925547;29;20106;-74
2020/12/14 02:31:32;;;;;;;6.00;4.18;;;7.60;99.90;;;;;;4933461;29;20046;-74
2020/12/14 02:33:58;;;;;;;6.95;4.97;;;7.60;99.90;;;;;;4924478;29;20020;-75
2020/12/14 02:36:24;;;;;;;5.80;5.20;;;7.50;99.90;;;;;;4927452;29;20020;-75
2020/12/14 02:38:51;;;;;;;5.82;4.65;;;7.50;99.90;;;;;;4932491;29;20027;-74
2020/12/14 02:41:17;;;;;;;5.22;4.28;;;7.40;99.90;;;;;;4926931;29;20160;-74
2020/12/14 02:43:43;;;;;;;4.65;3.60;;;7.40;99.90;;;;;;4931694;29;20099;-73
2020/12/14 02:46:09;;;;;;;7.22;6.13;;;7.40;99.90;;;;;;4927355;29;20039;-73
2020/12/14 02:48:35;;;;;;;7.18;6.10;;;7.40;99.90;;;;;;4926902;29;20095;-74
2020/12/14 02:51:01;;;;;;;6.60;5.90;;;7.30;99.90;;;;;;4931598;29;20055;-74
2020/12/14 02:53:27;;;;;;;8.43;7.32;;;7.30;99.90;;;;;;4930557;29;20023;-74
2020/12/14 02:55:53;;;;;;;7.35;5.97;;;7.10;99.90;;;;;;4921207;29;20044;-74
2020/12/14 02:58:18;;;;;;;12.43;7.65;;;7.10;99.90;;;;;;4924692;29;20443;-73
2020/12/14 03:00:46;;;;;;;6.43;4.97;;;6.90;99.90;;;;;;4925543;29;20079;-72
2020/12/14 03:03:12;;;;;;;6.43;5.45;;;6.70;99.90;;;;;;4931227;29;20030;-74
2020/12/14 03:05:38;;;;;;;4.82;4.32;;;6.60;99.90;;;;;;4925042;29;20024;-74
2020/12/14 03:08:04;;;;;;;5.28;4.78;;;6.50;99.90;;;;;;4918708;29;20035;-73
2020/12/14 03:10:30;;;;;;;5.40;4.72;;;6.50;99.90;;;;;;4922315;29;20028;-73
2020/12/14 03:12:56;;;;;;;6.47;5.38;;;6.50;99.90;;;;;;4916534;29;20070;-74
2020/12/14 03:15:22;;;;;;;5.78;4.85;;;6.40;99.90;;;;;;4926348;29;20292;-73
2020/12/14 03:17:48;;;;;;;6.05;5.45;;;6.30;99.90;;;;;;4926049;29;20029;-73
2020/12/14 03:20:14;;;;;;;7.63;6.00;;;6.40;99.90;;;;;;4928918;29;20083;-76
2020/12/14 03:22:39;;;;;;;5.60;5.03;;;6.30;99.90;;;;;;4937115;29;20032;-72
2020/12/14 03:25:05;;;;;;;6.20;5.07;;;6.20;99.90;;;;;;4924413;29;20076;-72
2020/12/14 03:27:31;;;;;;;6.85;5.35;;;6.20;99.90;;;;;;4923901;29;20031;-74
2020/12/14 03:29:57;;;;;;;5.95;5.20;;;6.20;99.90;;;;;;4914187;29;20035;-73
2020/12/14 03:32:23;;;;;;;12.70;9.93;;;6.10;99.90;;;;;;4936283;29;20028;-73
2020/12/14 03:34:48;;;;;;;12.15;7.95;;;6.10;99.90;;;;;;4930401;29;20545;-73
2020/12/14 03:37:14;;;;;;;8.20;6.00;;;6.10;99.90;;;;;;4934625;29;20044;-74
2020/12/14 03:39:40;;;;;;;6.10;4.75;;;6.20;99.90;;;;;;4929039;29;20098;-75
2020/12/14 03:42:06;;;;;;;6.53;3.85;;;6.30;99.90;;;;;;4933215;29;20387;-73
2020/12/14 03:44:32;;;;;;;6.80;5.35;;;6.30;99.90;;;;;;4932607;29;20051;-73
2020/12/14 03:46:58;;;;;;;5.63;4.57;;;6.50;99.90;;;;;;4928683;29;20044;-74
2020/12/14 03:49:24;;;;;;;9.55;7.93;;;6.60;99.90;;;;;;4926710;29;20023;-72
2020/12/14 03:51:49;;;;;;;10.10;7.15;;;6.60;99.90;;;;;;4929461;29;20110;-73
2020/12/14 03:54:15;;;;;;;7.38;6.05;;;6.60;99.90;;;;;;4930879;29;20028;-73
2020/12/14 03:56:41;;;;;;;9.73;7.68;;;6.50;99.90;;;;;;4931894;29;20040;-73
2020/12/14 03:59:07;;;;;;;5.32;4.82;;;6.40;99.90;;;;;;4936166;29;20028;-73
2020/12/14 04:01:33;;;;;;;5.13;3.72;;;6.30;99.90;;;;;;4929977;29;20110;-72
2020/12/14 04:03:59;;;;;;;4.72;4.32;;;6.30;99.90;;;;;;4936726;29;20020;-73
2020/12/14 04:06:26;;;;;;;4.47;3.83;;;6.30;99.90;;;;;;4928406;29;20348;-73
2020/12/14 04:08:53;;;;;;;4.88;3.63;;;6.30;99.90;;;;;;4922680;29;20035;-75
2020/12/14 04:11:19;;;;;;;6.70;6.00;;;6.40;99.90;;;;;;4927635;29;20062;-73
2020/12/14 04:13:46;;;;;;;3.90;3.50;;;6.50;99.90;;;;;;4931282;29;20482;-73
2020/12/14 04:16:12;;;;;;;5.10;3.35;;;6.40;99.90;;;;;;4926281;29;20097;-74
2020/12/14 04:18:38;;;;;;;5.82;3.65;;;6.40;99.90;;;;;;4935082;29;20046;-73
2020/12/14 04:21:05;;;;;;;4.68;3.45;;;6.50;99.90;;;;;;4937392;29;20514;-73
2020/12/14 04:23:31;;;;;;;4.18;3.78;;;6.60;99.90;;;;;;4915535;29;20031;-73
2020/12/14 04:25:57;;;;;;;4.20;3.03;;;6.50;99.90;;;;;;4925098;29;20020;-72
2020/12/14 04:28:23;;;;;;;3.28;2.85;;;6.50;99.90;;;;;;4929529;29;20051;-73
2020/12/14 04:30:49;;;;;;;3.85;3.45;;;6.50;99.90;;;;;;4918982;29;20032;-73
2020/12/14 04:33:15;;;;;;;5.65;5.15;;;6.30;99.90;;;;;;4917980;29;20043;-73
2020/12/14 04:35:40;;;;;;;6.38;4.05;;;6.20;99.90;;;;;;4931235;29;20040;-73
2020/12/14 04:38:06;;;;;;;4.10;3.70;;;6.00;99.90;;;;;;4932411;29;20135;-73
2020/12/14 04:40:32;;;;;;;4.85;3.75;;;6.00;99.90;;;;;;4938009;29;20019;-74
2020/12/14 04:42:59;;;;;;;2.80;2.60;;;5.90;99.90;;;;;;4917225;29;20046;-73
2020/12/14 04:45:26;;;;;;;4.03;3.63;;;6.00;99.90;;;;;;4914227;29;20031;-74
2020/12/14 04:47:57;;;;;;;4.30;3.30;;;6.00;99.90;;;;;;4932851;29;20321;-73
2020/12/14 04:50:24;;;;;;;3.83;3.42;;;6.00;99.90;;;;;;4921910;29;20439;-76
2020/12/14 04:52:51;;;;;;;5.00;4.03;;;6.10;99.90;;;;;;4911097;29;20024;-77
2020/12/14 04:55:23;;;;;;;3.95;3.65;;;6.10;99.90;;;;;;4928371;29;20065;-73
2020/12/14 04:57:50;;;;;;;6.22;4.40;;;6.10;99.90;;;;;;4928724;29;20356;-73
2020/12/14 05:00:18;;;;;;;4.45;4.05;;;6.10;99.90;;;;;;4931891;29;20034;-74
2020/12/14 05:02:44;;;;;;;5.45;4.32;;;6.00;99.90;;;;;;4928642;29;20148;-73
2020/12/14 05:05:11;;;;;;;5.40;4.22;;;5.90;99.90;;;;;;4928584;29;20023;-73
2020/12/14 05:07:42;;;;;;;6.45;4.00;;;5.90;99.90;;;;;;4928567;29;20031;-74
2020/12/14 05:10:08;;;;;;;5.30;3.97;;;5.80;99.90;;;;;;4932129;29;20042;-74
2020/12/14 05:13:11;;;;;;;6.00;4.03;;;5.80;99.90;;;;;;4909938;29;20035;-74
2020/12/14 05:15:40;;;;;;;4.05;3.17;;;5.80;99.90;;;;;;4888556;29;20043;-73
2020/12/14 05:18:15;;;;;;;3.72;3.38;;;5.70;99.90;;;;;;4932324;29;20084;-73
2020/12/14 05:20:55;;;;;;;5.80;3.55;;;5.60;99.90;;;;;;4933903;29;20475;-74
2020/12/14 05:23:21;;;;;;;4.93;3.42;;;5.50;99.90;;;;;;4935384;29;20072;-72
2020/12/14 05:25:47;;;;;;;4.38;3.05;;;5.50;99.90;;;;;;4935737;29;20038;-74
2020/12/14 05:28:16;;;;;;;4.53;3.35;;;5.60;99.90;;;;;;4933913;29;20427;-73
2020/12/14 05:30:44;;;;;;;4.07;3.38;;;5.60;99.90;;;;;;4917777;29;20547;-73
2020/12/14 05:33:12;;;;;;;6.40;3.55;;;5.60;99.90;;;;;;4917430;29;20039;-72
2020/12/14 05:35:40;;;;;;;4.97;3.45;;;5.70;99.90;;;;;;4917955;29;20032;-73
2020/12/14 05:38:20;;;;;;;4.68;4.05;;;5.70;99.90;;;;;;4915641;29;20067;-73
2020/12/14 05:41:06;;;;;;;5.45;4.05;;;5.70;99.90;;;;;;4935842;29;20051;-74
2020/12/14 05:43:34;;;;;;;5.28;4.78;;;5.80;99.90;;;;;;4936574;29;20090;-75
2020/12/14 05:46:16;;;;;;;5.35;3.95;;;5.70;99.90;;;;;;4936294;29;20054;-72
2020/12/14 05:48:44;;;;;;;26.90;14.10;;;5.70;99.90;;;;;;4936172;29;20114;-72
2020/12/14 05:51:12;;;;;;;33.83;16.55;;;5.70;99.90;;;;;;4933092;29;20059;-73
2020/12/14 05:53:39;;;;;;;15.00;8.82;;;5.80;99.90;;;;;;4909253;29;20036;-74
2020/12/14 05:56:08;;;;;;;7.60;4.28;;;6.20;99.90;;;;;;4917497;29;20028;-73
2020/12/14 05:58:39;;;;;;;4.70;4.05;;;6.50;99.90;;;;;;4918959;29;20078;-73
2020/12/14 06:01:08;;;;;;;4.18;3.28;;;6.80;99.90;;;;;;4938749;29;20589;-72
2020/12/14 06:03:35;;;;;;;5.82;4.03;;;6.90;99.90;;;;;;4939073;29;20149;-73
2020/12/14 06:06:08;;;;;;;6.60;5.03;;;7.10;99.90;;;;;;4940623;29;20047;-73
2020/12/14 06:08:40;;;;;;;11.98;8.85;;;7.10;99.90;;;;;;4943469;29;20420;-74
2020/12/14 06:11:07;;;;;;;4.85;4.28;;;7.00;99.90;;;;;;4943986;29;20036;-72
2020/12/14 06:13:40;;;;;;;4.13;3.35;;;7.00;99.90;;;;;;4937568;29;20030;-73
2020/12/14 06:16:08;;;;;;;18.27;11.32;;;7.10;99.90;;;;;;4936336;29;20028;-74
2020/12/14 06:18:37;;;;;;;7.70;5.57;;;7.10;99.90;;;;;;4935792;29;20028;-73
2020/12/14 06:21:03;;;;;;;7.13;5.47;;;7.00;99.90;;;;;;4936366;29;20059;-73
2020/12/14 06:23:39;;;;;;;6.97;5.70;;;7.20;99.90;;;;;;4918940;29;20027;-74
2020/12/14 06:26:08;;;;;;;8.75;5.63;;;7.30;99.90;;;;;;4935989;29;20498;-73
2020/12/14 06:28:34;;;;;;;16.70;12.38;;;7.30;99.90;;;;;;4935372;29;20122;-75
2020/12/14 06:31:02;;;;;;;29.73;17.63;;;7.10;99.90;;;;;;4935572;29;20027;-73
2020/12/14 06:33:35;;;;;;;21.13;13.50;;;7.00;99.90;;;;;;4932133;29;20055;-73
2020/12/14 06:36:20;;;;;;;13.25;8.63;;;6.80;99.90;;;;;;4929574;29;20039;-76
2020/12/14 06:38:48;;;;;;;14.32;7.53;;;6.80;99.90;;;;;;4929966;29;20093;-74
2020/12/14 06:41:22;;;;;;;19.80;12.43;;;6.80;99.90;;;;;;4916020;29;20027;-73
2020/12/14 06:43:50;;;;;;;9.80;5.43;;;6.80;99.90;;;;;;4935419;29;20074;-73
2020/12/14 06:46:26;;;;;;;11.65;8.30;;;6.80;99.90;;;;;;4935195;29;20024;-72
2020/12/14 06:48:53;;;;;;;8.93;6.90;;;6.80;99.90;;;;;;4918592;29;20060;-73
2020/12/14 06:51:20;;;;;;;7.80;6.90;;;6.80;99.90;;;;;;4935905;29;20024;-74
2020/12/14 06:53:50;;;;;;;12.55;8.68;;;6.80;99.90;;;;;;4934539;29;20024;-73
2020/12/14 06:56:28;;;;;;;17.13;9.63;;;6.90;99.90;;;;;;4932390;29;20565;-74
2020/12/14 06:58:57;;;;;;;6.85;5.70;;;7.00;99.90;;;;;;4914802;29;20122;-73
2020/12/14 07:01:41;;;;;;;6.32;4.88;;;7.10;99.90;;;;;;4931074;29;20048;-72
2020/12/14 07:04:12;;;;;;;9.10;6.88;;;7.30;99.90;;;;;;4933691;29;20028;-74
2020/12/14 07:06:38;;;;;;;5.35;4.70;;;7.30;99.90;;;;;;4916761;29;20087;-73
2020/12/14 07:09:29;;;;;;;4.50;4.07;;;7.30;99.90;;;;;;4931620;29;20031;-74
2020/12/14 07:12:15;;;;;;;5.03;3.75;;;7.50;99.90;;;;;;4907830;29;20418;-73
2020/12/14 07:14:49;;;;;;;3.60;3.30;;;7.70;99.90;;;;;;4918676;29;20036;-73
2020/12/14 07:17:26;;;;;;;4.75;4.15;;;7.80;99.90;;;;;;4935477;29;20042;-73
2020/12/14 07:19:57;;;;;;;3.80;3.50;;;8.00;99.90;;;;;;4936346;29;20024;-73
2020/12/14 07:22:24;;;;;;;3.47;3.17;;;8.00;99.90;;;;;;4918890;29;20071;-74
2020/12/14 07:25:04;;;;;;;5.55;4.10;;;8.10;99.90;;;;;;4918205;29;20031;-73
2020/12/14 07:27:32;;;;;;;3.78;3.13;;;8.00;99.90;;;;;;4932222;29;20027;-73
2020/12/14 07:30:09;;;;;;;3.17;2.83;;;8.20;99.90;;;;;;4921316;29;20035;-74
2020/12/14 07:32:35;;;;;;;3.88;3.53;;;8.10;99.90;;;;;;4916305;29;20122;-73
2020/12/14 07:35:02;;;;;;;5.65;3.42;;;8.20;99.90;;;;;;4929220;29;20057;-73
2020/12/14 07:37:28;;;;;;;5.15;4.25;;;8.20;99.90;;;;;;4931246;29;20370;-74
2020/12/14 07:39:54;;;;;;;7.65;5.13;;;8.10;99.90;;;;;;4935691;29;20079;-74
2020/12/14 07:42:27;;;;;;;6.25;5.65;;;8.00;99.90;;;;;;4930118;29;20027;-73
2020/12/14 07:45:26;;;;;;;7.85;4.63;;;8.00;99.90;;;;;;4925983;29;20110;-66
2020/12/14 07:47:53;;;;;;;5.00;4.47;;;8.00;99.90;;;;;;4878153;29;20064;-63
2020/12/14 07:50:22;;;;;;;7.30;3.67;;;8.00;99.90;;;;;;4926439;29;20110;-73
2020/12/14 07:52:55;;;;;;;5.78;4.00;;;8.40;99.90;;;;;;4928226;29;20027;-73
2020/12/14 07:55:22;;;;;;;6.05;5.45;;;8.70;99.90;;;;;;4924437;29;20023;-73
2020/12/14 07:57:50;;;;;;;10.38;6.20;;;8.80;99.90;;;;;;4912101;29;20678;-73
2020/12/14 08:00:18;;;;;;;5.13;4.60;;;9.10;99.90;;;;;;4907814;29;20479;-72
2020/12/14 08:02:45;;;;;;;8.88;6.80;;;9.10;99.90;;;;;;4926290;29;20060;-72
2020/12/14 08:05:12;;;;;;;7.45;6.03;;;9.10;99.90;;;;;;4911460;29;20035;-72
2020/12/14 08:07:56;;;;;;;8.98;7.50;;;9.10;99.90;;;;;;4930092;29;20087;-73
2020/12/14 08:10:31;;;;;;;11.38;7.88;;;9.20;99.90;;;;;;4928984;29;20024;-73
2020/12/14 08:13:09;;;;;;;9.18;5.20;;;9.20;99.90;;;;;;4916522;29;20031;-72
2020/12/14 08:15:36;;;;;;;11.65;7.68;;;9.10;99.90;;;;;;4935533;29;20503;-72
2020/12/14 08:18:05;;;;;;;9.90;8.85;;;9.00;99.90;;;;;;4911947;29;20479;-73
2020/12/14 08:20:36;;;;;;;14.10;11.18;;;9.10;99.90;;;;;;4912437;29;20072;-73
2020/12/14 08:23:15;;;;;;;11.48;8.00;;;9.30;99.90;;;;;;4923068;29;20135;-73
2020/12/14 08:25:45;;;;;;;10.95;7.93;;;9.60;99.90;;;;;;4925258;29;20055;-73
2020/12/14 08:28:11;;;;;;;5.32;4.82;;;9.70;99.90;;;;;;4931123;29;20031;-74
2020/12/14 08:30:40;;;;;;;10.70;4.13;;;9.90;99.90;;;;;;4927538;29;20038;-74
2020/12/14 08:33:11;;;;;;;4.13;3.28;;;9.80;99.90;;;;;;4915204;29;20034;-73
2020/12/14 08:35:42;;;;;;;3.93;3.57;;;9.80;99.90;;;;;;4930607;29;20032;-73
2020/12/14 08:38:10;;;;;;;5.15;4.32;;;9.70;99.90;;;;;;4928707;29;20041;-73
2020/12/14 08:40:37;;;;;;;6.75;3.60;;;9.70;99.90;;;;;;4932875;29;20456;-73
2020/12/14 08:43:11;;;;;;;10.00;5.10;;;9.60;99.90;;;;;;4928261;29;20036;-73
2020/12/14 08:45:57;;;;;;;4.88;2.85;;;9.80;99.90;;;;;;4929491;29;20074;-73
2020/12/14 08:48:23;;;;;;;6.32;2.70;;;9.90;99.90;;;;;;4931365;29;20055;-73
2020/12/14 08:50:49;;;;;;;6.00;2.83;;;9.90;99.90;;;;;;4919183;29;21346;-73
2020/12/14 08:53:24;;;;;;;3.53;2.70;;;9.90;99.90;;;;;;4931542;29;20027;-74
2020/12/14 08:55:50;;;;;;;5.40;3.40;;;9.90;99.90;;;;;;4906175;29;20067;-74
2020/12/14 08:58:16;;;;;;;7.95;2.58;;;10.10;99.90;;;;;;4931918;29;20032;-74
2020/12/14 09:00:42;;;;;;;7.15;3.65;;;10.30;99.90;;;;;;4932798;29;20035;-74
2020/12/14 09:03:08;;;;;;;6.38;5.10;;;10.60;99.90;;;;;;4936571;29;20114;-74
2020/12/14 09:05:35;;;;;;;8.82;6.80;;;10.80;99.90;;;;;;4930934;29;20117;-73
2020/12/14 09:08:14;;;;;;;9.23;5.25;;;10.80;99.90;;;;;;4935030;29;20040;-74
2020/12/14 09:10:40;;;;;;;11.00;7.45;;;10.80;99.90;;;;;;4920328;29;20027;-73
2020/12/14 09:13:17;;;;;;;6.03;4.10;;;10.90;99.90;;;;;;4928480;29;20029;-75
2020/12/14 09:15:58;;;;;;;12.07;6.38;;;10.90;99.90;;;;;;4926659;29;20035;-74
2020/12/14 09:18:24;;;;;;;6.65;4.32;;;11.10;99.90;;;;;;4929308;29;20023;-73
2020/12/14 09:21:01;;;;;;;10.50;4.90;;;11.20;99.90;;;;;;4933935;29;20425;-75
2020/12/14 09:23:27;;;;;;;4.68;3.83;;;11.30;99.90;;;;;;4928195;29;20114;-73
2020/12/14 09:25:53;;;;;;;3.67;3.25;;;11.30;99.90;;;;;;4934476;29;20145;-74
2020/12/14 09:28:19;;;;;;;8.65;4.35;;;11.40;99.90;;;;;;4930021;29;20124;-77
2020/12/14 09:30:44;;;;;;;3.47;2.80;;;11.50;99.90;;;;;;4917027;29;20164;-75
2020/12/14 09:33:10;;;;;;;2.92;2.53;;;11.50;99.90;;;;;;4929699;29;20028;-75
2020/12/14 09:35:37;;;;;;;4.03;2.45;;;11.40;99.90;;;;;;4928802;29;20036;-75
2020/12/14 09:38:03;;;;;;;7.15;3.53;;;11.40;99.90;;;;;;4907594;29;20111;-75
2020/12/14 09:40:29;;;;;;;5.10;4.53;;;11.30;99.90;;;;;;4927250;29;20111;-75
2020/12/14 09:42:55;;;;;;;6.75;4.25;;;11.30;99.90;;;;;;4929297;29;20488;-75
2020/12/14 09:45:20;;;;;;;3.28;2.83;;;11.50;99.90;;;;;;4932702;29;20048;-75
2020/12/14 09:47:48;;;;;;;5.18;2.90;;;11.40;99.90;;;;;;4933627;29;20028;-75
2020/12/14 09:50:14;;;;;;;2.90;2.60;;;11.50;99.90;;;;;;4925582;29;20051;-75
2020/12/14 09:52:43;;;;;;;5.53;2.95;;;11.60;99.90;;;;;;4933824;29;20024;-74
2020/12/14 09:55:09;;;;;;;3.20;2.90;;;11.60;99.90;;;;;;4928404;29;20412;-74
2020/12/14 09:57:35;;;;;;;2.97;1.92;;;11.50;99.90;;;;;;4922119;29;20028;-75
2020/12/14 10:00:01;;;;;;;2.50;2.30;;;11.70;99.90;;;;;;4935082;29;20047;-75
2020/12/14 10:02:26;;;;;;;1.92;1.80;;;11.80;99.90;;;;;;4915214;29;20028;-74
2020/12/14 10:04:52;;;;;;;2.65;2.45;;;11.90;99.90;;;;;;4932629;29;20054;-74
2020/12/14 10:07:18;;;;;;;5.13;2.85;;;11.90;99.90;;;;;;4916797;29;20081;-74
2020/12/14 10:09:44;;;;;;;4.95;2.75;;;11.80;99.90;;;;;;4926087;29;20044;-76
2020/12/14 10:12:10;;;;;;;2.45;2.25;;;11.90;99.90;;;;;;4924762;29;20035;-75
2020/12/14 10:14:35;;;;;;;5.25;3.17;;;11.80;99.90;;;;;;4929858;29;20036;-74
2020/12/14 10:17:02;;;;;;;3.90;3.50;;;11.90;99.90;;;;;;4930503;29;20451;-72
2020/12/14 10:19:29;;;;;;;9.57;2.92;;;11.90;99.90;;;;;;4930463;29;20016;-75
2020/12/14 10:21:55;;;;;;;8.40;3.25;;;11.90;99.90;;;;;;4930636;29;20071;-75
2020/12/14 10:24:20;;;;;;;11.88;2.70;;;12.00;99.90;;;;;;4912526;29;20459;-75
2020/12/14 10:26:49;;;;;;;5.63;2.25;;;12.00;99.90;;;;;;4923075;29;20110;-75
2020/12/14 10:29:17;;;;;;;4.10;2.30;;;12.00;99.90;;;;;;4920248;29;20369;-75
2020/12/14 10:31:48;;;;;;;2.67;2.10;;;12.10;99.90;;;;;;4908915;29;20602;-75
2020/12/14 10:34:14;;;;;;;6.70;2.45;;;12.10;99.90;;;;;;4927320;29;20491;-75
2020/12/14 10:36:45;;;;;;;2.03;1.88;;;12.10;99.90;;;;;;4904861;29;20071;-75
2020/12/14 10:39:11;;;;;;;2.75;2.15;;;12.20;99.90;;;;;;4903746;29;20036;-76
2020/12/14 10:41:37;;;;;;;3.10;2.72;;;12.20;99.90;;;;;;4931770;29;20086;-75
2020/12/14 10:44:03;;;;;;;2.97;2.17;;;12.20;99.90;;;;;;4927841;29;20134;-74
2020/12/14 10:46:28;;;;;;;10.10;2.42;;;12.30;99.90;;;;;;4906231;29;20195;-73
2020/12/14 10:48:54;;;;;;;4.55;2.47;;;12.40;99.90;;;;;;4928907;29;20071;-74
2020/12/14 10:51:20;;;;;;;2.65;2.45;;;12.40;99.90;;;;;;4928582;29;20027;-73
2020/12/14 10:53:46;;;;;;;6.07;2.03;;;12.50;99.90;;;;;;4928687;29;20037;-73
2020/12/14 10:56:12;;;;;;;6.93;3.80;;;12.60;99.90;;;;;;4907315;29;20032;-74
2020/12/14 10:58:38;;;;;;;2.97;2.05;;;12.60;99.90;;;;;;4929222;29;20044;-74
2020/12/14 11:01:04;;;;;;;3.25;2.78;;;12.60;99.90;;;;;;4907253;29;20563;-74
2020/12/14 11:03:29;;;;;;;4.15;3.03;;;12.60;99.90;;;;;;4931582;29;20024;-73
2020/12/14 11:05:55;;;;;;;3.30;2.38;;;12.60;99.90;;;;;;4933707;29;20090;-74
2020/12/14 11:08:21;;;;;;;3.58;3.10;;;12.60;99.90;;;;;;4929598;29;20031;-75
2020/12/14 11:10:48;;;;;;;4.93;4.22;;;12.70;99.90;;;;;;4932956;29;20080;-75
2020/12/14 11:13:14;;;;;;;4.88;4.35;;;12.70;99.90;;;;;;4924160;29;20024;-75
2020/12/14 11:15:40;;;;;;;9.35;3.83;;;12.50;99.90;;;;;;4912917;29;20047;-75
2020/12/14 11:18:06;;;;;;;6.47;3.95;;;12.30;99.90;;;;;;4934488;29;20031;-75
2020/12/14 11:20:32;;;;;;;5.10;3.35;;;12.30;99.90;;;;;;4927905;29;20061;-80
2020/12/14 11:22:57;;;;;;;5.25;3.38;;;12.20;99.90;;;;;;4913013;29;20082;-74
2020/12/14 11:25:23;;;;;;;4.88;3.60;;;12.20;99.90;;;;;;4901734;29;20091;-74
2020/12/14 11:27:49;;;;;;;4.65;3.13;;;12.10;99.90;;;;;;4927143;29;20071;-74
2020/12/14 11:30:15;;;;;;;5.18;3.58;;;12.00;99.90;;;;;;4930655;29;20442;-72
2020/12/14 11:32:41;;;;;;;4.70;3.25;;;12.00;99.90;;;;;;4931137;29;20114;-74
2020/12/14 11:35:06;;;;;;;7.50;2.80;;;12.00;99.90;;;;;;4929819;29;20032;-75
2020/12/14 11:37:37;;;;;;;3.72;2.40;;;12.00;99.90;;;;;;4935951;29;20394;-74
2020/12/14 11:40:03;;;;;;;4.35;2.47;;;11.90;99.90;;;;;;4923827;29;20039;-74
2020/12/14 11:42:29;;;;;;;2.88;2.20;;;11.90;99.90;;;;;;4925205;29;20024;-74
2020/12/14 11:44:55;;;;;;;2.20;2.00;;;11.90;99.90;;;;;;4938171;29;20024;-75
2020/12/14 11:47:23;;;;;;;1.98;1.77;;;11.80;99.90;;;;;;4935748;29;20031;-80
2020/12/14 11:49:48;;;;;;;2.25;2.05;;;11.80;99.90;;;;;;4935075;29;20071;-70
2020/12/14 11:52:14;;;;;;;4.47;3.35;;;11.90;99.90;;;;;;4934196;29;20032;-70
2020/12/14 11:54:40;;;;;;;3.22;2.92;;;12.10;99.90;;;;;;4929548;29;20115;-70
2020/12/14 11:57:06;;;;;;;3.00;2.80;;;12.20;99.90;;;;;;4929962;29;20038;-70
2020/12/14 11:59:32;;;;;;;2.92;2.03;;;12.40;99.90;;;;;;4925874;29;20028;-69
2020/12/14 12:01:57;;;;;;;3.03;2.60;;;12.40;99.90;;;;;;4930422;29;20028;-75
2020/12/14 12:04:23;;;;;;;3.08;2.75;;;12.40;99.90;;;;;;4930168;29;20015;-75
2020/12/14 12:06:49;;;;;;;5.15;3.00;;;12.30;99.90;;;;;;4937950;29;20478;-76
2020/12/14 12:09:15;;;;;;;3.80;2.97;;;12.30;99.90;;;;;;4935617;29;20032;-74
2020/12/14 12:11:45;;;;;;;8.38;2.60;;;12.30;99.90;;;;;;4934161;29;20063;-73
2020/12/14 12:14:11;;;;;;;2.92;2.45;;;12.30;99.90;;;;;;4926128;29;20107;-73
2020/12/14 12:16:36;;;;;;;3.05;2.28;;;12.30;99.90;;;;;;4933536;29;20063;-73
2020/12/14 12:19:02;;;;;;;7.22;3.03;;;12.50;99.90;;;;;;4932219;29;20523;-74
2020/12/14 12:21:28;;;;;;;6.50;2.90;;;12.50;99.90;;;;;;4930237;29;20024;-73
2020/12/14 12:23:54;;;;;;;9.63;2.75;;;12.50;99.90;;;;;;4929560;29;20106;-74
2020/12/14 12:26:19;;;;;;;3.67;2.47;;;12.40;99.90;;;;;;4930642;29;20038;-74
2020/12/14 12:28:48;;;;;;;5.32;2.22;;;12.50;99.90;;;;;;4927827;29;20391;-74
2020/12/14 12:31:14;;;;;;;4.00;2.08;;;12.60;99.90;;;;;;4935365;29;20585;-74
2020/12/14 12:33:40;;;;;;;2.83;2.63;;;12.50;99.90;;;;;;4931598;29;20067;-74
2020/12/14 12:36:07;;;;;;;5.70;2.10;;;12.50;99.90;;;;;;4921600;29;20032;-74
2020/12/14 12:38:33;;;;;;;5.20;2.63;;;12.50;99.90;;;;;;4913908;29;20031;-74
2020/12/14 12:40:59;;;;;;;6.00;2.33;;;12.60;99.90;;;;;;4923821;29;20395;-74
2020/12/14 12:43:25;;;;;;;3.22;2.33;;;12.60;99.90;;;;;;4911589;29;20422;-74
2020/12/14 12:45:50;;;;;;;6.43;2.65;;;12.50;99.90;;;;;;4925766;29;20091;-74
2020/12/14 12:48:17;;;;;;;2.67;2.47;;;12.50;99.90;;;;;;4924727;29;20087;-73
2020/12/14 12:50:53;;;;;;;2.85;2.65;;;12.50;99.90;;;;;;4933269;29;20056;-73
2020/12/14 12:53:26;;;;;;;2.53;2.33;;;12.50;99.90;;;;;;4925497;29;20088;-73
2020/12/14 12:55:53;;;;;;;3.35;2.50;;;12.40;99.90;;;;;;4934111;29;20047;-73